sensor_id;sensor_type;location;lat;lon;timestamp;P1;durP1;ratioP1;P2;durP2;ratioP2
22557;SDS011;11445;53.816;8.902;2022-11-20T00:01:29;2.63;;;2.03;;
22557;SDS011;11445;53.816;8.902;2022-11-20T00:03:57;3.92;;;2.30;;
22557;SDS011;11445;53.816;8.902;2022-11-20T00:06:25;2.22;;;1.90;;
22557;SDS011;11445;53.816;8.902;2022-11-20T00:08:54;3.42;;;2.00;;
22557;SDS011;11445;53.816;8.902;2022-11-20T00:11:23;3.28;;;1.90;;
22557;SDS011;11445;53.816;8.902;2022-11-20T00:13:52;7.13;;;2.17;;
22557;SDS011;11445;53.816;8.902;2022-11-20T00:16:21;2.72;;;1.83;;
22557;SDS011;11445;53.816;8.902;2022-11-20T00:18:50;2.88;;;1.80;;
22557;SDS011;11445;53.816;8.902;2022-11-20T00:21:19;2.40;;;2.20;;
22557;SDS011;11445;53.816;8.902;2022-11-20T00:23:47;2.80;;;1.85;;
22557;SDS011;11445;53.816;8.902;2022-11-20T00:26:16;2.20;;;2.00;;
22557;SDS011;11445;53.816;8.902;2022-11-20T00:28:44;5.68;;;1.83;;
22557;SDS011;11445;53.816;8.902;2022-11-20T00:31:16;2.10;;;1.70;;
22557;SDS011;11445;53.816;8.902;2022-11-20T00:33:43;2.35;;;2.05;;
22557;SDS011;11445;53.816;8.902;2022-11-20T00:36:13;3.05;;;2.20;;
22557;SDS011;11445;53.816;8.902;2022-11-20T00:38:41;5.65;;;2.03;;
22557;SDS011;11445;53.816;8.902;2022-11-20T00:41:09;2.90;;;2.05;;
22557;SDS011;11445;53.816;8.902;2022-11-20T00:43:37;2.20;;;2.00;;
22557;SDS011;11445;53.816;8.902;2022-11-20T00:46:05;4.18;;;2.33;;
22557;SDS011;11445;53.816;8.902;2022-11-20T00:48:34;2.72;;;2.03;;
22557;SDS011;11445;53.816;8.902;2022-11-20T00:51:01;4.18;;;1.77;;
22557;SDS011;11445;53.816;8.902;2022-11-20T00:53:29;3.72;;;2.17;;
22557;SDS011;11445;53.816;8.902;2022-11-20T00:55:57;1.98;;;1.70;;
22557;SDS011;11445;53.816;8.902;2022-11-20T00:58:28;5.03;;;2.50;;
22557;SDS011;11445;53.816;8.902;2022-11-20T01:00:59;2.17;;;1.88;;
22557;SDS011;11445;53.816;8.902;2022-11-20T01:03:27;2.53;;;1.83;;
22557;SDS011;11445;53.816;8.902;2022-11-20T01:05:59;2.67;;;2.30;;
22557;SDS011;11445;53.816;8.902;2022-11-20T01:08:30;4.28;;;1.98;;
22557;SDS011;11445;53.816;8.902;2022-11-20T01:11:00;3.95;;;2.10;;
22557;SDS011;11445;53.816;8.902;2022-11-20T01:13:28;6.05;;;2.20;;
22557;SDS011;11445;53.816;8.902;2022-11-20T01:16:06;2.33;;;2.13;;
22557;SDS011;11445;53.816;8.902;2022-11-20T01:18:34;3.03;;;2.45;;
22557;SDS011;11445;53.816;8.902;2022-11-20T01:21:03;2.22;;;1.73;;
22557;SDS011;11445;53.816;8.902;2022-11-20T01:23:33;3.15;;;1.92;;
22557;SDS011;11445;53.816;8.902;2022-11-20T01:26:02;4.63;;;1.88;;
22557;SDS011;11445;53.816;8.902;2022-11-20T01:28:30;1.83;;;1.60;;
22557;SDS011;11445;53.816;8.902;2022-11-20T01:30:57;1.80;;;1.58;;
22557;SDS011;11445;53.816;8.902;2022-11-20T01:33:25;6.20;;;1.95;;
22557;SDS011;11445;53.816;8.902;2022-11-20T01:35:52;2.15;;;1.92;;
22557;SDS011;11445;53.816;8.902;2022-11-20T01:38:19;2.05;;;1.83;;
22557;SDS011;11445;53.816;8.902;2022-11-20T01:40:54;2.80;;;1.60;;
22557;SDS011;11445;53.816;8.902;2022-11-20T01:43:22;3.30;;;1.92;;
22557;SDS011;11445;53.816;8.902;2022-11-20T01:46:00;8.30;;;2.10;;
22557;SDS011;11445;53.816;8.902;2022-11-20T01:48:33;1.92;;;1.77;;
22557;SDS011;11445;53.816;8.902;2022-11-20T01:51:04;5.65;;;1.80;;
22557;SDS011;11445;53.816;8.902;2022-11-20T01:53:37;2.55;;;2.17;;
22557;SDS011;11445;53.816;8.902;2022-11-20T01:56:07;5.47;;;2.08;;
22557;SDS011;11445;53.816;8.902;2022-11-20T01:58:37;2.42;;;1.70;;
22557;SDS011;11445;53.816;8.902;2022-11-20T02:01:08;1.95;;;1.40;;
22557;SDS011;11445;53.816;8.902;2022-11-20T02:03:35;4.93;;;2.20;;
22557;SDS011;11445;53.816;8.902;2022-11-20T02:06:04;2.63;;;1.90;;
22557;SDS011;11445;53.816;8.902;2022-11-20T02:08:36;5.10;;;1.95;;
22557;SDS011;11445;53.816;8.902;2022-11-20T02:11:06;3.40;;;1.92;;
22557;SDS011;11445;53.816;8.902;2022-11-20T02:13:34;2.83;;;2.28;;
22557;SDS011;11445;53.816;8.902;2022-11-20T02:16:20;8.48;;;2.50;;
22557;SDS011;11445;53.816;8.902;2022-11-20T02:18:48;5.63;;;3.05;;
22557;SDS011;11445;53.816;8.902;2022-11-20T02:21:21;5.43;;;2.90;;
22557;SDS011;11445;53.816;8.902;2022-11-20T02:24:03;3.47;;;2.35;;
22557;SDS011;11445;53.816;8.902;2022-11-20T02:26:33;6.88;;;2.80;;
22557;SDS011;11445;53.816;8.902;2022-11-20T02:29:05;4.38;;;2.15;;
22557;SDS011;11445;53.816;8.902;2022-11-20T02:31:36;5.00;;;1.90;;
22557;SDS011;11445;53.816;8.902;2022-11-20T02:34:06;3.08;;;1.60;;
22557;SDS011;11445;53.816;8.902;2022-11-20T02:36:34;3.72;;;2.10;;
22557;SDS011;11445;53.816;8.902;2022-11-20T02:39:04;4.57;;;1.90;;
22557;SDS011;11445;53.816;8.902;2022-11-20T02:41:32;2.28;;;1.88;;
22557;SDS011;11445;53.816;8.902;2022-11-20T02:44:00;3.72;;;1.98;;
22557;SDS011;11445;53.816;8.902;2022-11-20T02:46:28;4.65;;;2.20;;
22557;SDS011;11445;53.816;8.902;2022-11-20T02:48:55;5.85;;;2.05;;
22557;SDS011;11445;53.816;8.902;2022-11-20T02:51:22;2.25;;;1.95;;
22557;SDS011;11445;53.816;8.902;2022-11-20T02:53:50;3.10;;;1.90;;
22557;SDS011;11445;53.816;8.902;2022-11-20T02:56:18;3.85;;;1.90;;
22557;SDS011;11445;53.816;8.902;2022-11-20T02:58:45;4.00;;;1.80;;
22557;SDS011;11445;53.816;8.902;2022-11-20T03:01:12;3.67;;;1.90;;
22557;SDS011;11445;53.816;8.902;2022-11-20T03:03:39;3.72;;;1.65;;
22557;SDS011;11445;53.816;8.902;2022-11-20T03:06:06;4.25;;;2.05;;
22557;SDS011;11445;53.816;8.902;2022-11-20T03:08:34;6.15;;;1.95;;
22557;SDS011;11445;53.816;8.902;2022-11-20T03:11:02;2.08;;;1.50;;
22557;SDS011;11445;53.816;8.902;2022-11-20T03:13:31;3.40;;;2.20;;
22557;SDS011;11445;53.816;8.902;2022-11-20T03:16:04;4.78;;;2.03;;
22557;SDS011;11445;53.816;8.902;2022-11-20T03:18:35;3.75;;;1.75;;
22557;SDS011;11445;53.816;8.902;2022-11-20T03:21:02;5.43;;;1.90;;
22557;SDS011;11445;53.816;8.902;2022-11-20T03:23:30;1.67;;;1.58;;
22557;SDS011;11445;53.816;8.902;2022-11-20T03:26:07;3.63;;;1.88;;
22557;SDS011;11445;53.816;8.902;2022-11-20T03:28:37;2.85;;;1.77;;
22557;SDS011;11445;53.816;8.902;2022-11-20T03:31:05;4.88;;;1.77;;
22557;SDS011;11445;53.816;8.902;2022-11-20T03:33:32;3.17;;;2.10;;
22557;SDS011;11445;53.816;8.902;2022-11-20T03:36:00;2.60;;;1.80;;
22557;SDS011;11445;53.816;8.902;2022-11-20T03:38:28;6.05;;;2.20;;
22557;SDS011;11445;53.816;8.902;2022-11-20T03:40:57;1.90;;;1.70;;
22557;SDS011;11445;53.816;8.902;2022-11-20T03:43:25;3.00;;;2.00;;
22557;SDS011;11445;53.816;8.902;2022-11-20T03:45:54;4.85;;;1.73;;
22557;SDS011;11445;53.816;8.902;2022-11-20T03:48:21;4.00;;;1.92;;
22557;SDS011;11445;53.816;8.902;2022-11-20T03:50:48;2.72;;;1.70;;
22557;SDS011;11445;53.816;8.902;2022-11-20T03:53:15;2.45;;;1.88;;
22557;SDS011;11445;53.816;8.902;2022-11-20T03:55:43;1.40;;;1.30;;
22557;SDS011;11445;53.816;8.902;2022-11-20T03:58:10;2.28;;;1.65;;
22557;SDS011;11445;53.816;8.902;2022-11-20T04:00:38;3.70;;;1.92;;
22557;SDS011;11445;53.816;8.902;2022-11-20T04:03:06;2.67;;;1.75;;
22557;SDS011;11445;53.816;8.902;2022-11-20T04:05:33;5.00;;;1.60;;
22557;SDS011;11445;53.816;8.902;2022-11-20T04:08:00;5.85;;;2.20;;
22557;SDS011;11445;53.816;8.902;2022-11-20T04:10:27;4.38;;;2.80;;
22557;SDS011;11445;53.816;8.902;2022-11-20T04:12:54;2.83;;;1.80;;
22557;SDS011;11445;53.816;8.902;2022-11-20T04:15:21;2.50;;;2.05;;
22557;SDS011;11445;53.816;8.902;2022-11-20T04:17:48;6.05;;;2.05;;
22557;SDS011;11445;53.816;8.902;2022-11-20T04:20:17;1.73;;;1.50;;
22557;SDS011;11445;53.816;8.902;2022-11-20T04:22:44;2.63;;;1.90;;
22557;SDS011;11445;53.816;8.902;2022-11-20T04:25:11;2.75;;;1.80;;
22557;SDS011;11445;53.816;8.902;2022-11-20T04:27:38;4.22;;;1.90;;
22557;SDS011;11445;53.816;8.902;2022-11-20T04:30:05;3.38;;;2.22;;
22557;SDS011;11445;53.816;8.902;2022-11-20T04:32:33;4.93;;;2.03;;
22557;SDS011;11445;53.816;8.902;2022-11-20T04:35:00;3.70;;;1.90;;
22557;SDS011;11445;53.816;8.902;2022-11-20T04:37:28;2.88;;;1.70;;
22557;SDS011;11445;53.816;8.902;2022-11-20T04:39:55;2.88;;;1.85;;
22557;SDS011;11445;53.816;8.902;2022-11-20T04:42:22;2.80;;;1.77;;
22557;SDS011;11445;53.816;8.902;2022-11-20T04:44:56;2.88;;;2.05;;
22557;SDS011;11445;53.816;8.902;2022-11-20T04:47:23;2.17;;;1.83;;
22557;SDS011;11445;53.816;8.902;2022-11-20T04:49:50;1.75;;;1.58;;
22557;SDS011;11445;53.816;8.902;2022-11-20T04:52:17;3.28;;;2.10;;
22557;SDS011;11445;53.816;8.902;2022-11-20T04:54:46;4.00;;;1.98;;
22557;SDS011;11445;53.816;8.902;2022-11-20T04:57:13;3.70;;;1.80;;
22557;SDS011;11445;53.816;8.902;2022-11-20T04:59:41;7.22;;;1.98;;
22557;SDS011;11445;53.816;8.902;2022-11-20T05:02:08;3.55;;;2.15;;
22557;SDS011;11445;53.816;8.902;2022-11-20T05:04:35;3.35;;;1.88;;
22557;SDS011;11445;53.816;8.902;2022-11-20T05:07:02;4.32;;;1.90;;
22557;SDS011;11445;53.816;8.902;2022-11-20T05:09:29;7.38;;;2.00;;
22557;SDS011;11445;53.816;8.902;2022-11-20T05:11:58;3.40;;;1.88;;
22557;SDS011;11445;53.816;8.902;2022-11-20T05:14:25;3.97;;;2.03;;
22557;SDS011;11445;53.816;8.902;2022-11-20T05:16:52;2.15;;;1.65;;
22557;SDS011;11445;53.816;8.902;2022-11-20T05:19:19;5.00;;;1.80;;
22557;SDS011;11445;53.816;8.902;2022-11-20T05:21:46;3.38;;;2.58;;
22557;SDS011;11445;53.816;8.902;2022-11-20T05:24:13;5.60;;;2.50;;
22557;SDS011;11445;53.816;8.902;2022-11-20T05:26:40;4.28;;;2.95;;
22557;SDS011;11445;53.816;8.902;2022-11-20T05:29:10;3.47;;;2.72;;
22557;SDS011;11445;53.816;8.902;2022-11-20T05:31:38;3.67;;;2.60;;
22557;SDS011;11445;53.816;8.902;2022-11-20T05:34:06;2.85;;;2.28;;
22557;SDS011;11445;53.816;8.902;2022-11-20T05:36:33;5.13;;;2.80;;
22557;SDS011;11445;53.816;8.902;2022-11-20T05:39:00;4.28;;;2.38;;
22557;SDS011;11445;53.816;8.902;2022-11-20T05:41:27;3.35;;;2.10;;
22557;SDS011;11445;53.816;8.902;2022-11-20T05:43:55;7.90;;;2.80;;
22557;SDS011;11445;53.816;8.902;2022-11-20T05:46:25;2.53;;;2.05;;
22557;SDS011;11445;53.816;8.902;2022-11-20T05:48:52;3.40;;;2.75;;
22557;SDS011;11445;53.816;8.902;2022-11-20T05:51:19;4.50;;;2.65;;
22557;SDS011;11445;53.816;8.902;2022-11-20T05:53:46;2.92;;;2.42;;
22557;SDS011;11445;53.816;8.902;2022-11-20T05:56:14;8.35;;;2.75;;
22557;SDS011;11445;53.816;8.902;2022-11-20T05:58:42;2.50;;;2.08;;
22557;SDS011;11445;53.816;8.902;2022-11-20T06:01:11;5.00;;;2.35;;
22557;SDS011;11445;53.816;8.902;2022-11-20T06:03:41;3.80;;;2.30;;
22557;SDS011;11445;53.816;8.902;2022-11-20T06:06:11;5.30;;;2.33;;
22557;SDS011;11445;53.816;8.902;2022-11-20T06:08:38;4.88;;;2.17;;
22557;SDS011;11445;53.816;8.902;2022-11-20T06:11:05;3.95;;;2.13;;
22557;SDS011;11445;53.816;8.902;2022-11-20T06:13:34;6.68;;;2.30;;
22557;SDS011;11445;53.816;8.902;2022-11-20T06:16:01;3.33;;;1.80;;
22557;SDS011;11445;53.816;8.902;2022-11-20T06:18:29;4.63;;;1.75;;
22557;SDS011;11445;53.816;8.902;2022-11-20T06:21:02;2.78;;;2.15;;
22557;SDS011;11445;53.816;8.902;2022-11-20T06:23:31;6.78;;;1.85;;
22557;SDS011;11445;53.816;8.902;2022-11-20T06:26:00;3.53;;;1.80;;
22557;SDS011;11445;53.816;8.902;2022-11-20T06:28:28;2.50;;;1.77;;
22557;SDS011;11445;53.816;8.902;2022-11-20T06:30:55;6.15;;;1.95;;
22557;SDS011;11445;53.816;8.902;2022-11-20T06:33:22;4.53;;;2.08;;
22557;SDS011;11445;53.816;8.902;2022-11-20T06:35:49;5.32;;;2.00;;
22557;SDS011;11445;53.816;8.902;2022-11-20T06:38:18;3.50;;;1.83;;
22557;SDS011;11445;53.816;8.902;2022-11-20T06:40:45;3.97;;;1.90;;
22557;SDS011;11445;53.816;8.902;2022-11-20T06:43:12;4.57;;;2.38;;
22557;SDS011;11445;53.816;8.902;2022-11-20T06:45:39;3.15;;;2.40;;
22557;SDS011;11445;53.816;8.902;2022-11-20T06:48:06;2.95;;;2.33;;
22557;SDS011;11445;53.816;8.902;2022-11-20T06:50:33;4.78;;;2.17;;
22557;SDS011;11445;53.816;8.902;2022-11-20T06:53:00;4.78;;;2.67;;
22557;SDS011;11445;53.816;8.902;2022-11-20T06:55:30;3.33;;;2.35;;
22557;SDS011;11445;53.816;8.902;2022-11-20T06:57:57;3.45;;;2.60;;
22557;SDS011;11445;53.816;8.902;2022-11-20T07:00:24;4.53;;;2.85;;
22557;SDS011;11445;53.816;8.902;2022-11-20T07:02:51;3.22;;;2.45;;
22557;SDS011;11445;53.816;8.902;2022-11-20T07:05:18;4.78;;;2.60;;
22557;SDS011;11445;53.816;8.902;2022-11-20T07:07:45;2.72;;;2.10;;
22557;SDS011;11445;53.816;8.902;2022-11-20T07:10:13;3.08;;;2.38;;
22557;SDS011;11445;53.816;8.902;2022-11-20T07:12:41;8.23;;;2.42;;
22557;SDS011;11445;53.816;8.902;2022-11-20T07:15:08;2.67;;;2.28;;
22557;SDS011;11445;53.816;8.902;2022-11-20T07:17:35;6.80;;;2.55;;
22557;SDS011;11445;53.816;8.902;2022-11-20T07:20:02;3.70;;;2.10;;
22557;SDS011;11445;53.816;8.902;2022-11-20T07:22:29;3.58;;;2.70;;
22557;SDS011;11445;53.816;8.902;2022-11-20T07:24:57;3.42;;;2.70;;
22557;SDS011;11445;53.816;8.902;2022-11-20T07:27:24;5.90;;;3.20;;
22557;SDS011;11445;53.816;8.902;2022-11-20T07:29:52;6.88;;;3.25;;
22557;SDS011;11445;53.816;8.902;2022-11-20T07:32:19;4.45;;;3.55;;
22557;SDS011;11445;53.816;8.902;2022-11-20T07:34:46;6.93;;;4.15;;
22557;SDS011;11445;53.816;8.902;2022-11-20T07:37:13;5.95;;;3.65;;
22557;SDS011;11445;53.816;8.902;2022-11-20T07:39:41;4.43;;;3.78;;
22557;SDS011;11445;53.816;8.902;2022-11-20T07:42:08;6.60;;;4.22;;
22557;SDS011;11445;53.816;8.902;2022-11-20T07:44:37;10.55;;;4.35;;
22557;SDS011;11445;53.816;8.902;2022-11-20T07:47:05;7.78;;;4.57;;
22557;SDS011;11445;53.816;8.902;2022-11-20T07:49:32;5.20;;;4.68;;
22557;SDS011;11445;53.816;8.902;2022-11-20T07:51:59;6.78;;;4.63;;
22557;SDS011;11445;53.816;8.902;2022-11-20T07:54:26;5.18;;;4.47;;
22557;SDS011;11445;53.816;8.902;2022-11-20T07:56:53;5.55;;;4.45;;
22557;SDS011;11445;53.816;8.902;2022-11-20T07:59:20;4.93;;;4.13;;
22557;SDS011;11445;53.816;8.902;2022-11-20T08:01:47;4.75;;;4.10;;
22557;SDS011;11445;53.816;8.902;2022-11-20T08:04:16;4.80;;;4.30;;
22557;SDS011;11445;53.816;8.902;2022-11-20T08:06:43;6.00;;;4.05;;
22557;SDS011;11445;53.816;8.902;2022-11-20T08:09:10;4.47;;;4.07;;
22557;SDS011;11445;53.816;8.902;2022-11-20T08:11:37;7.63;;;4.38;;
22557;SDS011;11445;53.816;8.902;2022-11-20T08:14:21;7.78;;;4.72;;
22557;SDS011;11445;53.816;8.902;2022-11-20T08:16:48;6.25;;;5.15;;
22557;SDS011;11445;53.816;8.902;2022-11-20T08:19:17;5.53;;;4.65;;
22557;SDS011;11445;53.816;8.902;2022-11-20T08:21:45;7.10;;;5.22;;
22557;SDS011;11445;53.816;8.902;2022-11-20T08:24:12;6.07;;;4.80;;
22557;SDS011;11445;53.816;8.902;2022-11-20T08:26:39;6.20;;;4.82;;
22557;SDS011;11445;53.816;8.902;2022-11-20T08:29:06;6.97;;;5.03;;
22557;SDS011;11445;53.816;8.902;2022-11-20T08:31:33;9.25;;;5.20;;
22557;SDS011;11445;53.816;8.902;2022-11-20T08:34:01;5.78;;;4.53;;
22557;SDS011;11445;53.816;8.902;2022-11-20T08:36:32;4.30;;;3.90;;
22557;SDS011;11445;53.816;8.902;2022-11-20T08:39:00;5.28;;;4.13;;
22557;SDS011;11445;53.816;8.902;2022-11-20T08:41:28;4.45;;;4.03;;
22557;SDS011;11445;53.816;8.902;2022-11-20T08:43:58;4.63;;;4.03;;
22557;SDS011;11445;53.816;8.902;2022-11-20T08:46:27;4.28;;;3.78;;
22557;SDS011;11445;53.816;8.902;2022-11-20T08:48:58;7.22;;;4.00;;
22557;SDS011;11445;53.816;8.902;2022-11-20T08:51:25;8.57;;;3.80;;
22557;SDS011;11445;53.816;8.902;2022-11-20T08:53:53;6.93;;;4.00;;
22557;SDS011;11445;53.816;8.902;2022-11-20T08:56:20;4.93;;;3.78;;
22557;SDS011;11445;53.816;8.902;2022-11-20T08:58:47;5.70;;;3.70;;
22557;SDS011;11445;53.816;8.902;2022-11-20T09:01:16;5.63;;;4.65;;
22557;SDS011;11445;53.816;8.902;2022-11-20T09:03:43;4.80;;;4.10;;
22557;SDS011;11445;53.816;8.902;2022-11-20T09:06:10;7.72;;;3.97;;
22557;SDS011;11445;53.816;8.902;2022-11-20T09:08:37;4.90;;;4.10;;
22557;SDS011;11445;53.816;8.902;2022-11-20T09:11:06;5.80;;;4.40;;
22557;SDS011;11445;53.816;8.902;2022-11-20T09:13:34;5.00;;;3.97;;
22557;SDS011;11445;53.816;8.902;2022-11-20T09:16:02;4.10;;;3.65;;
22557;SDS011;11445;53.816;8.902;2022-11-20T09:18:31;6.28;;;3.85;;
22557;SDS011;11445;53.816;8.902;2022-11-20T09:21:01;4.43;;;4.03;;
22557;SDS011;11445;53.816;8.902;2022-11-20T09:23:31;5.07;;;3.70;;
22557;SDS011;11445;53.816;8.902;2022-11-20T09:26:01;5.80;;;3.45;;
22557;SDS011;11445;53.816;8.902;2022-11-20T09:28:30;4.75;;;3.40;;
22557;SDS011;11445;53.816;8.902;2022-11-20T09:30:57;4.65;;;3.58;;
22557;SDS011;11445;53.816;8.902;2022-11-20T09:33:24;5.72;;;3.65;;
22557;SDS011;11445;53.816;8.902;2022-11-20T09:35:52;4.82;;;3.58;;
22557;SDS011;11445;53.816;8.902;2022-11-20T09:38:18;5.57;;;3.13;;
22557;SDS011;11445;53.816;8.902;2022-11-20T09:40:47;3.45;;;3.15;;
22557;SDS011;11445;53.816;8.902;2022-11-20T09:43:18;5.70;;;3.28;;
22557;SDS011;11445;53.816;8.902;2022-11-20T09:45:54;4.47;;;3.17;;
22557;SDS011;11445;53.816;8.902;2022-11-20T09:48:34;3.50;;;3.17;;
22557;SDS011;11445;53.816;8.902;2022-11-20T09:51:13;4.28;;;3.08;;
22557;SDS011;11445;53.816;8.902;2022-11-20T09:53:53;4.80;;;2.95;;
22557;SDS011;11445;53.816;8.902;2022-11-20T09:56:30;4.82;;;3.83;;
22557;SDS011;11445;53.816;8.902;2022-11-20T09:58:59;7.90;;;4.05;;
22557;SDS011;11445;53.816;8.902;2022-11-20T10:01:33;6.28;;;3.90;;
22557;SDS011;11445;53.816;8.902;2022-11-20T10:04:06;4.45;;;3.78;;
22557;SDS011;11445;53.816;8.902;2022-11-20T10:06:41;5.15;;;4.07;;
22557;SDS011;11445;53.816;8.902;2022-11-20T10:09:18;5.78;;;3.70;;
22557;SDS011;11445;53.816;8.902;2022-11-20T10:11:56;4.40;;;3.50;;
22557;SDS011;11445;53.816;8.902;2022-11-20T10:14:34;3.95;;;3.10;;
22557;SDS011;11445;53.816;8.902;2022-11-20T10:17:11;3.47;;;3.03;;
22557;SDS011;11445;53.816;8.902;2022-11-20T10:19:47;3.83;;;3.17;;
22557;SDS011;11445;53.816;8.902;2022-11-20T10:22:28;5.05;;;3.25;;
22557;SDS011;11445;53.816;8.902;2022-11-20T10:25:09;3.78;;;3.03;;
22557;SDS011;11445;53.816;8.902;2022-11-20T10:27:45;4.35;;;2.80;;
22557;SDS011;11445;53.816;8.902;2022-11-20T10:30:22;4.65;;;3.25;;
22557;SDS011;11445;53.816;8.902;2022-11-20T10:32:53;3.45;;;3.10;;
22557;SDS011;11445;53.816;8.902;2022-11-20T10:35:25;8.95;;;3.78;;
22557;SDS011;11445;53.816;8.902;2022-11-20T10:37:56;4.20;;;3.30;;
22557;SDS011;11445;53.816;8.902;2022-11-20T10:40:28;4.82;;;3.60;;
22557;SDS011;11445;53.816;8.902;2022-11-20T10:43:01;4.53;;;3.25;;
22557;SDS011;11445;53.816;8.902;2022-11-20T10:45:36;3.55;;;2.95;;
22557;SDS011;11445;53.816;8.902;2022-11-20T10:48:14;2.78;;;2.58;;
22557;SDS011;11445;53.816;8.902;2022-11-20T10:50:49;3.28;;;2.97;;
22557;SDS011;11445;53.816;8.902;2022-11-20T10:53:33;3.20;;;2.75;;
22557;SDS011;11445;53.816;8.902;2022-11-20T10:56:19;2.85;;;2.65;;
22557;SDS011;11445;53.816;8.902;2022-11-20T10:58:54;3.63;;;2.33;;
22557;SDS011;11445;53.816;8.902;2022-11-20T11:01:39;2.95;;;2.40;;
22557;SDS011;11445;53.816;8.902;2022-11-20T11:04:14;3.17;;;2.50;;
22557;SDS011;11445;53.816;8.902;2022-11-20T11:06:50;2.25;;;2.05;;
22557;SDS011;11445;53.816;8.902;2022-11-20T11:09:21;3.63;;;2.67;;
22557;SDS011;11445;53.816;8.902;2022-11-20T11:11:58;2.70;;;2.20;;
22557;SDS011;11445;53.816;8.902;2022-11-20T11:14:26;3.15;;;2.42;;
22557;SDS011;11445;53.816;8.902;2022-11-20T11:16:53;2.67;;;2.47;;
22557;SDS011;11445;53.816;8.902;2022-11-20T11:19:22;2.70;;;2.50;;
22557;SDS011;11445;53.816;8.902;2022-11-20T11:21:50;3.85;;;2.60;;
22557;SDS011;11445;53.816;8.902;2022-11-20T11:24:20;2.67;;;2.45;;
22557;SDS011;11445;53.816;8.902;2022-11-20T11:26:52;2.92;;;2.53;;
22557;SDS011;11445;53.816;8.902;2022-11-20T11:29:22;3.10;;;2.80;;
22557;SDS011;11445;53.816;8.902;2022-11-20T11:32:02;3.05;;;2.83;;
22557;SDS011;11445;53.816;8.902;2022-11-20T11:34:32;5.60;;;2.95;;
22557;SDS011;11445;53.816;8.902;2022-11-20T11:36:59;3.75;;;2.63;;
22557;SDS011;11445;53.816;8.902;2022-11-20T11:39:29;2.67;;;1.95;;
22557;SDS011;11445;53.816;8.902;2022-11-20T11:41:57;2.53;;;2.20;;
22557;SDS011;11445;53.816;8.902;2022-11-20T11:44:27;2.05;;;1.95;;
22557;SDS011;11445;53.816;8.902;2022-11-20T11:47:17;2.40;;;2.20;;
22557;SDS011;11445;53.816;8.902;2022-11-20T11:49:50;2.58;;;1.92;;
22557;SDS011;11445;53.816;8.902;2022-11-20T11:52:27;3.20;;;2.20;;
22557;SDS011;11445;53.816;8.902;2022-11-20T11:54:55;4.43;;;2.40;;
22557;SDS011;11445;53.816;8.902;2022-11-20T11:57:26;4.68;;;2.80;;
22557;SDS011;11445;53.816;8.902;2022-11-20T12:00:01;3.00;;;2.50;;
22557;SDS011;11445;53.816;8.902;2022-11-20T12:02:34;3.05;;;2.20;;
22557;SDS011;11445;53.816;8.902;2022-11-20T12:05:08;2.28;;;2.08;;
22557;SDS011;11445;53.816;8.902;2022-11-20T12:07:43;2.53;;;2.20;;
22557;SDS011;11445;53.816;8.902;2022-11-20T12:10:15;2.45;;;2.25;;
22557;SDS011;11445;53.816;8.902;2022-11-20T12:12:46;3.92;;;2.50;;
22557;SDS011;11445;53.816;8.902;2022-11-20T12:15:22;2.70;;;2.20;;
22557;SDS011;11445;53.816;8.902;2022-11-20T12:17:52;2.33;;;2.13;;
22557;SDS011;11445;53.816;8.902;2022-11-20T12:20:20;2.30;;;2.15;;
22557;SDS011;11445;53.816;8.902;2022-11-20T12:22:53;2.75;;;2.55;;
22557;SDS011;11445;53.816;8.902;2022-11-20T12:25:28;4.05;;;2.15;;
22557;SDS011;11445;53.816;8.902;2022-11-20T12:28:01;4.85;;;2.20;;
22557;SDS011;11445;53.816;8.902;2022-11-20T12:30:53;2.13;;;2.03;;
22557;SDS011;11445;53.816;8.902;2022-11-20T12:33:35;7.88;;;2.75;;
22557;SDS011;11445;53.816;8.902;2022-11-20T12:36:18;3.00;;;2.70;;
22557;SDS011;11445;53.816;8.902;2022-11-20T12:38:56;3.40;;;2.75;;
22557;SDS011;11445;53.816;8.902;2022-11-20T12:41:43;2.42;;;2.22;;
22557;SDS011;11445;53.816;8.902;2022-11-20T12:44:44;4.05;;;2.78;;
22557;SDS011;11445;53.816;8.902;2022-11-20T12:50:32;4.78;;;2.88;;
22557;SDS011;11445;53.816;8.902;2022-11-20T12:53:07;3.40;;;2.83;;
22557;SDS011;11445;53.816;8.902;2022-11-20T12:55:53;3.08;;;2.60;;
22557;SDS011;11445;53.816;8.902;2022-11-20T12:58:27;4.13;;;2.63;;
22557;SDS011;11445;53.816;8.902;2022-11-20T13:01:02;3.00;;;2.50;;
22557;SDS011;11445;53.816;8.902;2022-11-20T13:03:58;3.10;;;2.85;;
22557;SDS011;11445;53.816;8.902;2022-11-20T13:06:33;3.58;;;2.95;;
22557;SDS011;11445;53.816;8.902;2022-11-20T13:09:04;4.38;;;2.80;;
22557;SDS011;11445;53.816;8.902;2022-11-20T13:11:39;2.63;;;2.40;;
22557;SDS011;11445;53.816;8.902;2022-11-20T13:14:16;2.55;;;2.35;;
22557;SDS011;11445;53.816;8.902;2022-11-20T13:16:54;2.22;;;2.10;;
22557;SDS011;11445;53.816;8.902;2022-11-20T13:19:25;2.42;;;2.22;;
22557;SDS011;11445;53.816;8.902;2022-11-20T13:21:53;2.53;;;2.33;;
22557;SDS011;11445;53.816;8.902;2022-11-20T13:24:23;3.45;;;2.58;;
22557;SDS011;11445;53.816;8.902;2022-11-20T13:27:05;3.00;;;2.67;;
22557;SDS011;11445;53.816;8.902;2022-11-20T13:29:45;3.97;;;3.30;;
22557;SDS011;11445;53.816;8.902;2022-11-20T13:32:24;5.60;;;3.05;;
22557;SDS011;11445;53.816;8.902;2022-11-20T13:34:51;4.57;;;2.90;;
22557;SDS011;11445;53.816;8.902;2022-11-20T13:37:27;3.65;;;3.20;;
22557;SDS011;11445;53.816;8.902;2022-11-20T13:40:11;5.07;;;3.45;;
22557;SDS011;11445;53.816;8.902;2022-11-20T13:42:54;3.50;;;3.10;;
22557;SDS011;11445;53.816;8.902;2022-11-20T13:45:23;8.55;;;3.92;;
22557;SDS011;11445;53.816;8.902;2022-11-20T13:47:51;4.32;;;3.60;;
22557;SDS011;11445;53.816;8.902;2022-11-20T13:50:20;5.43;;;3.95;;
22557;SDS011;11445;53.816;8.902;2022-11-20T13:52:58;5.75;;;3.78;;
22557;SDS011;11445;53.816;8.902;2022-11-20T13:55:37;4.88;;;3.38;;
22557;SDS011;11445;53.816;8.902;2022-11-20T13:58:17;5.18;;;4.20;;
22557;SDS011;11445;53.816;8.902;2022-11-20T14:00:55;3.65;;;3.10;;
22557;SDS011;11445;53.816;8.902;2022-11-20T14:05:55;3.03;;;2.72;;
22557;SDS011;11445;53.816;8.902;2022-11-20T14:08:28;2.92;;;2.72;;
22557;SDS011;11445;53.816;8.902;2022-11-20T14:11:03;3.83;;;2.63;;
22557;SDS011;11445;53.816;8.902;2022-11-20T14:13:31;3.17;;;2.88;;
22557;SDS011;11445;53.816;8.902;2022-11-20T14:15:58;2.60;;;2.40;;
22557;SDS011;11445;53.816;8.902;2022-11-20T14:18:25;4.68;;;2.50;;
22557;SDS011;11445;53.816;8.902;2022-11-20T14:20:53;3.47;;;2.60;;
22557;SDS011;11445;53.816;8.902;2022-11-20T14:23:23;3.53;;;2.70;;
22557;SDS011;11445;53.816;8.902;2022-11-20T14:25:52;6.20;;;2.78;;
22557;SDS011;11445;53.816;8.902;2022-11-20T14:28:21;3.85;;;2.60;;
22557;SDS011;11445;53.816;8.902;2022-11-20T14:30:52;3.57;;;2.80;;
22557;SDS011;11445;53.816;8.902;2022-11-20T14:33:20;2.38;;;2.17;;
22557;SDS011;11445;53.816;8.902;2022-11-20T14:35:50;2.67;;;2.22;;
22557;SDS011;11445;53.816;8.902;2022-11-20T14:38:21;2.60;;;2.40;;
22557;SDS011;11445;53.816;8.902;2022-11-20T14:40:50;2.25;;;2.08;;
22557;SDS011;11445;53.816;8.902;2022-11-20T14:43:19;5.50;;;2.47;;
22557;SDS011;11445;53.816;8.902;2022-11-20T14:45:52;3.13;;;2.63;;
22557;SDS011;11445;53.816;8.902;2022-11-20T14:48:24;2.88;;;2.25;;
22557;SDS011;11445;53.816;8.902;2022-11-20T14:50:55;2.60;;;2.40;;
22557;SDS011;11445;53.816;8.902;2022-11-20T14:53:23;2.13;;;1.95;;
22557;SDS011;11445;53.816;8.902;2022-11-20T14:55:54;2.35;;;2.25;;
22557;SDS011;11445;53.816;8.902;2022-11-20T14:58:25;2.22;;;2.00;;
22557;SDS011;11445;53.816;8.902;2022-11-20T15:00:54;2.30;;;2.10;;
22557;SDS011;11445;53.816;8.902;2022-11-20T15:03:23;2.47;;;2.13;;
22557;SDS011;11445;53.816;8.902;2022-11-20T15:05:56;2.50;;;2.00;;
22557;SDS011;11445;53.816;8.902;2022-11-20T15:08:23;2.03;;;1.75;;
22557;SDS011;11445;53.816;8.902;2022-11-20T15:10:51;4.00;;;2.97;;
22557;SDS011;11445;53.816;8.902;2022-11-20T15:13:21;4.00;;;2.78;;